| time (UTC) | temp F | wind direction | speed knots | gust knots | rain 1hr in | rain 24hr in | rain mn in | humidity % | barometer mb |
| 20260508141735 | 53 | 196 | 0.0 | 0.0 | 0.00 | 0.00 | 0.00 | 56 | 1016.5 |
| 20260508141233 | 53 | 151 | 0.9 | 1.7 | 0.00 | 0.00 | 0.00 | 53 | 1016.5 |
| 20260508140730 | 52 | 183 | 0.0 | 0.9 | 0.00 | 0.00 | 0.00 | 54 | 1016.7 |
| 20260508140228 | 52 | 174 | 0.9 | 2.6 | 0.00 | 0.00 | 0.00 | 56 | 1016.5 |
| 20260508135724 | 52 | 178 | 0.9 | 2.6 | 0.00 | 0.00 | 0.00 | 58 | 1016.7 |
| 20260508135220 | 52 | 210 | 0.0 | 1.7 | 0.00 | 0.00 | 0.00 | 57 | 1016.5 |
| 20260508134715 | 51 | 177 | 1.7 | 1.7 | 0.00 | 0.00 | 0.00 | 57 | 1016.7 |
| 20260508134213 | 50 | 241 | 0.0 | 0.9 | 0.00 | 0.00 | 0.00 | 62 | 1016.4 |
| 20260508133710 | 50 | 252 | 1.7 | 2.6 | 0.00 | 0.00 | 0.00 | 66 | 1016.5 |
| 20260508133207 | 50 | 184 | 0.9 | 1.7 | 0.00 | 0.00 | 0.00 | 66 | 1016.4 |
| 20260508132704 | 49 | 210 | 0.0 | 0.9 | 0.00 | 0.00 | 0.00 | 70 | 1016.4 |
| 20260508132201 | 48 | 257 | 1.7 | 1.7 | 0.00 | 0.00 | 0.00 | 71 | 1016.4 |
| 20260508131656 | 47 | 217 | 0.9 | 0.9 | 0.00 | 0.00 | 0.00 | 75 | 1016.2 |
| 20260508131153 | 47 | 254 | 0.9 | 1.7 | 0.00 | 0.00 | 0.00 | 77 | 1016.3 |
| 20260508130650 | 46 | 239 | 0.0 | 0.9 | 0.00 | 0.00 | 0.00 | 81 | 1016.5 |
| 20260508130147 | 46 | 237 | 0.0 | 1.7 | 0.00 | 0.00 | 0.00 | 82 | 1016.3 |
| 20260508125643 | 45 | 217 | 0.0 | 0.9 | 0.00 | 0.00 | 0.00 | 83 | 1016.3 |
| 20260508125140 | 44 | 220 | 0.0 | 1.7 | 0.00 | 0.00 | 0.00 | 83 | 1016.4 |
| 20260508124638 | 44 | 259 | 1.7 | 3.5 | 0.00 | 0.00 | 0.00 | 84 | 1016.4 |
| 20260508124135 | 44 | 185 | 0.9 | 1.7 | 0.00 | 0.00 | 0.00 | 85 | 1016.5 |
| 20260508123633 | 43 | 216 | 0.0 | 0.9 | 0.00 | 0.00 | 0.00 | 87 | 1016.6 |
| 20260508123130 | 43 | 236 | 0.9 | 0.9 | 0.00 | 0.00 | 0.00 | 88 | 1016.6 |
| 20260508122626 | 42 | 220 | 0.0 | 0.9 | 0.00 | 0.00 | 0.00 | 90 | 1016.5 |
| 20260508122123 | 41 | 240 | 0.0 | 1.7 | 0.00 | 0.00 | 0.00 | 92 | 1016.2 |
| 20260508121622 | 41 | 224 | 0.0 | 0.0 | 0.00 | 0.00 | 0.00 | 93 | 1016.3 |
| 20260508121120 | 40 | 244 | 0.0 | 0.9 | 0.00 | 0.00 | 0.00 | 94 | 1016.2 |
| 20260508120617 | 39 | 243 | 0.0 | 0.9 | 0.00 | 0.00 | 0.00 | 95 | 1016.0 |
| 20260508120115 | 39 | 257 | 0.9 | 1.7 | 0.00 | 0.00 | 0.00 | 95 | 1016.1 |
| 20260508115612 | 39 | 245 | 0.9 | 2.6 | 0.00 | 0.00 | 0.00 | 96 | 1016.1 |
| 20260508115108 | 39 | 239 | 0.0 | 0.0 | 0.00 | 0.00 | 0.00 | 96 | 1016.1 |
| 20260508114606 | 39 | 239 | 0.0 | 0.9 | 0.00 | 0.00 | 0.00 | 96 | 1015.9 |
| 20260508114101 | 38 | 242 | 0.0 | 0.0 | 0.00 | 0.00 | 0.00 | 96 | 1016.0 |
| 20260508113559 | 38 | 242 | 0.0 | 0.0 | 0.00 | 0.00 | 0.00 | 96 | 1015.9 |
| 20260508113057 | 38 | 242 | 0.0 | 0.9 | 0.00 | 0.00 | 0.00 | 96 | 1015.9 |
| 20260508112553 | 37 | 242 | 0.0 | 0.0 | 0.00 | 0.00 | 0.00 | 96 | 1015.8 |
| 20260508112050 | 37 | 243 | 0.0 | 0.9 | 0.00 | 0.00 | 0.00 | 96 | 1016.0 |
| 20260508111547 | 37 | 249 | 0.0 | 0.0 | 0.00 | 0.00 | 0.00 | 96 | 1015.8 |
| 20260508111044 | 36 | 241 | 0.0 | 0.0 | 0.00 | 0.00 | 0.00 | 96 | 1015.9 |
| 20260508110542 | 36 | 241 | 0.0 | 0.0 | 0.00 | 0.00 | 0.00 | 96 | 1015.8 |
| 20260508110038 | 35 | 241 | 0.0 | 0.9 | 0.00 | 0.00 | 0.00 | 96 | 1015.7 |
| 20260508105533 | 35 | 241 | 0.0 | 0.0 | 0.00 | 0.00 | 0.00 | 96 | 1015.8 |
| 20260508105031 | 35 | 241 | 0.0 | 0.0 | 0.00 | 0.00 | 0.00 | 96 | 1015.7 |
| 20260508104528 | 35 | 241 | 0.0 | 0.0 | 0.00 | 0.00 | 0.00 | 96 | 1015.7 |
| 20260508104024 | 35 | 241 | 0.0 | 0.0 | 0.00 | 0.00 | 0.00 | 96 | 1015.6 |
| 20260508103521 | 35 | 241 | 0.0 | 0.0 | 0.00 | 0.00 | 0.00 | 96 | 1015.6 |
| 20260508103019 | 35 | 241 | 0.0 | 0.0 | 0.00 | 0.00 | 0.00 | 96 | 1015.6 |
| 20260508102516 | 35 | 241 | 0.0 | 0.0 | 0.00 | 0.00 | 0.00 | 96 | 1015.6 |
| 20260508102014 | 35 | 241 | 0.0 | 0.0 | 0.00 | 0.00 | 0.00 | 96 | 1015.4 |
| 20260508101511 | 35 | 241 | 0.0 | 0.0 | 0.00 | 0.00 | 0.00 | 96 | 1015.2 |
| 20260508101008 | 35 | 241 | 0.0 | 0.0 | 0.00 | 0.00 | 0.00 | 96 | 1015.4 |
| 20260508100507 | 35 | 241 | 0.0 | 0.0 | 0.00 | 0.00 | 0.00 | 96 | 1015.4 |
| 20260508100003 | 35 | 242 | 0.0 | 0.9 | 0.00 | 0.00 | 0.00 | 96 | 1015.2 |
| 20260508095455 | 35 | 249 | 0.0 | 0.9 | 0.00 | 0.00 | 0.00 | 96 | 1015.2 |
| 20260508094952 | 35 | 246 | 0.0 | 0.9 | 0.00 | 0.00 | 0.00 | 96 | 1015.1 |
| 20260508094448 | 35 | 246 | 0.0 | 0.0 | 0.00 | 0.00 | 0.00 | 95 | 1015.1 |
| 20260508093945 | 36 | 246 | 0.0 | 0.0 | 0.00 | 0.00 | 0.00 | 95 | 1015.3 |
| 20260508093442 | 36 | 246 | 0.0 | 0.0 | 0.00 | 0.00 | 0.00 | 95 | 1015.2 |
| 20260508092940 | 36 | 246 | 0.0 | 0.0 | 0.00 | 0.00 | 0.00 | 95 | 1015.4 |
| 20260508092437 | 36 | 246 | 0.0 | 0.0 | 0.00 | 0.00 | 0.00 | 95 | 1015.4 |
| 20260508091935 | 36 | 246 | 0.0 | 0.0 | 0.00 | 0.00 | 0.00 | 95 | 1015.1 |
| 20260508091427 | 36 | 246 | 0.0 | 0.0 | 0.00 | 0.00 | 0.00 | 95 | 1015.1 |
| 20260508090924 | 36 | 246 | 0.0 | 0.0 | 0.00 | 0.00 | 0.00 | 95 | 1015.0 |
| 20260508090423 | 37 | 246 | 0.0 | 0.0 | 0.00 | 0.00 | 0.00 | 95 | 1015.0 |
| 20260508085918 | 37 | 246 | 0.0 | 0.0 | 0.00 | 0.00 | 0.00 | 95 | 1015.1 |
| 20260508085415 | 37 | 246 | 0.0 | 0.0 | 0.00 | 0.00 | 0.00 | 95 | 1015.4 |
| 20260508084911 | 37 | 246 | 0.0 | 0.0 | 0.00 | 0.00 | 0.00 | 95 | 1015.1 |
| 20260508084408 | 37 | 246 | 0.0 | 0.0 | 0.00 | 0.00 | 0.00 | 95 | 1015.2 |
| 20260508083906 | 37 | 246 | 0.0 | 0.0 | 0.00 | 0.00 | 0.00 | 95 | 1015.2 |
| 20260508083404 | 37 | 246 | 0.0 | 0.0 | 0.00 | 0.00 | 0.00 | 95 | 1015.1 |
| 20260508082903 | 38 | 246 | 0.0 | 0.0 | 0.00 | 0.00 | 0.00 | 95 | 1014.9 |
| 20260508082401 | 39 | 246 | 0.0 | 0.0 | 0.00 | 0.00 | 0.00 | 95 | 1015.1 |
| 20260508081858 | 39 | 246 | 0.0 | 0.0 | 0.00 | 0.00 | 0.00 | 95 | 1015.2 |
| 20260508081355 | 39 | 246 | 0.0 | 0.0 | 0.00 | 0.00 | 0.00 | 95 | 1015.2 |
| 20260508080851 | 39 | 246 | 0.0 | 0.0 | 0.00 | 0.00 | 0.00 | 95 | 1015.1 |
| 20260508080350 | 39 | 246 | 0.0 | 0.0 | 0.00 | 0.00 | 0.00 | 95 | 1014.9 |
| 20260508075846 | 39 | 245 | 0.0 | 0.0 | 0.00 | 0.00 | 0.00 | 95 | 1015.1 |
| 20260508075343 | 39 | 245 | 0.0 | 0.0 | 0.00 | 0.00 | 0.00 | 95 | 1015.0 |
| 20260508074841 | 39 | 246 | 0.0 | 0.0 | 0.00 | 0.00 | 0.00 | 95 | 1015.0 |
| 20260508074337 | 40 | 246 | 0.0 | 0.0 | 0.00 | 0.00 | 0.00 | 95 | 1014.9 |
| 20260508073834 | 40 | 246 | 0.9 | 0.9 | 0.00 | 0.00 | 0.00 | 95 | 1015.0 |
| 20260508073332 | 40 | 233 | 0.0 | 0.9 | 0.00 | 0.00 | 0.00 | 95 | 1014.8 |
| 20260508072829 | 39 | 232 | 0.0 | 0.9 | 0.00 | 0.00 | 0.00 | 95 | 1014.8 |
| 20260508072325 | 39 | 231 | 0.0 | 0.9 | 0.00 | 0.00 | 0.00 | 95 | 1014.9 |
| 20260508071823 | 39 | 222 | 0.0 | 0.0 | 0.00 | 0.00 | 0.00 | 95 | 1014.8 |
| 20260508071321 | 39 | 210 | 0.0 | 0.0 | 0.00 | 0.00 | 0.00 | 95 | 1014.9 |
| 20260508070818 | 38 | 210 | 0.0 | 0.0 | 0.00 | 0.00 | 0.00 | 95 | 1014.6 |
| 20260508070316 | 39 | 210 | 0.0 | 0.0 | 0.00 | 0.00 | 0.00 | 95 | 1014.4 |
| 20260508065813 | 38 | 210 | 0.0 | 0.0 | 0.00 | 0.00 | 0.00 | 95 | 1014.7 |
| 20260508065311 | 39 | 210 | 0.0 | 0.0 | 0.00 | 0.00 | 0.00 | 95 | 1014.5 |
| 20260508064809 | 39 | 210 | 0.0 | 0.0 | 0.00 | 0.00 | 0.00 | 95 | 1014.7 |
| 20260508064307 | 39 | 210 | 0.0 | 0.0 | 0.00 | 0.00 | 0.00 | 95 | 1014.8 |
| 20260508063804 | 39 | 210 | 0.0 | 0.0 | 0.00 | 0.00 | 0.00 | 94 | 1014.6 |
| 20260508063302 | 39 | 210 | 0.0 | 0.0 | 0.00 | 0.00 | 0.00 | 94 | 1014.6 |
| 20260508062759 | 39 | 210 | 0.0 | 0.0 | 0.00 | 0.00 | 0.00 | 94 | 1014.7 |
| 20260508062256 | 39 | 210 | 0.0 | 0.0 | 0.00 | 0.00 | 0.00 | 94 | 1014.5 |
| 20260508061753 | 40 | 210 | 0.0 | 0.0 | 0.00 | 0.00 | 0.00 | 94 | 1014.8 |
| 20260508061250 | 40 | 210 | 0.0 | 0.0 | 0.00 | 0.00 | 0.00 | 94 | 1014.8 |
| 20260508060747 | 40 | 210 | 0.0 | 0.0 | 0.00 | 0.00 | 0.00 | 94 | 1014.6 |
| 20260508060245 | 41 | 210 | 0.0 | 0.0 | 0.00 | 0.00 | 0.00 | 94 | 1014.9 |
| 20260508055739 | 41 | 210 | 0.0 | 0.0 | 0.00 | 0.00 | 0.00 | 94 | 1014.8 |
| 20260508055236 | 41 | 210 | 0.0 | 0.0 | 0.00 | 0.00 | 0.00 | 93 | 1014.8 |
| 20260508054733 | 41 | 210 | 0.0 | 0.0 | 0.00 | 0.00 | 0.00 | 93 | 1014.8 |
| 20260508054226 | 42 | 210 | 0.0 | 0.0 | 0.00 | 0.00 | 0.00 | 93 | 1014.8 |
| 20260508053722 | 42 | 210 | 0.0 | 0.0 | 0.00 | 0.00 | 0.00 | 93 | 1014.9 |
| 20260508053220 | 42 | 210 | 0.0 | 0.0 | 0.00 | 0.00 | 0.00 | 93 | 1014.7 |
| 20260508052716 | 42 | 210 | 0.0 | 0.0 | 0.00 | 0.00 | 0.00 | 93 | 1014.6 |
| 20260508052213 | 42 | 210 | 0.0 | 0.0 | 0.00 | 0.00 | 0.00 | 93 | 1014.7 |
| 20260508051710 | 43 | 210 | 0.0 | 0.0 | 0.00 | 0.00 | 0.00 | 93 | 1014.7 |
| 20260508051205 | 43 | 210 | 0.0 | 0.0 | 0.00 | 0.00 | 0.00 | 93 | 1014.5 |
| 20260508050702 | 43 | 210 | 0.0 | 0.0 | 0.00 | 0.00 | 0.00 | 93 | 1014.5 |
| 20260508050200 | 43 | 210 | 0.0 | 0.0 | 0.00 | 0.00 | 0.00 | 93 | 1014.5 |
| 20260508045654 | 43 | 210 | 0.0 | 0.0 | 0.00 | 0.00 | 0.00 | 93 | 1014.3 |
| 20260508045153 | 43 | 210 | 0.0 | 0.0 | 0.00 | 0.00 | 0.00 | 93 | 1014.4 |
| 20260508044650 | 43 | 210 | 0.0 | 0.0 | 0.00 | 0.00 | 0.00 | 93 | 1014.3 |
| 20260508044146 | 43 | 210 | 0.0 | 0.0 | 0.00 | 0.00 | 0.00 | 93 | 1014.3 |
| 20260508043642 | 43 | 209 | 0.0 | 0.0 | 0.00 | 0.00 | 0.00 | 93 | 1014.3 |
| 20260508043141 | 43 | 216 | 0.0 | 0.0 | 0.00 | 0.00 | 0.00 | 92 | 1014.2 |
| 20260508042637 | 43 | 216 | 0.0 | 0.0 | 0.00 | 0.00 | 0.00 | 92 | 1014.2 |
| 20260508042134 | 43 | 216 | 0.0 | 0.0 | 0.00 | 0.00 | 0.00 | 92 | 1014.3 |
| 20260508041630 | 43 | 216 | 0.0 | 0.0 | 0.00 | 0.00 | 0.00 | 92 | 1014.1 |
| 20260508041127 | 43 | 217 | 0.0 | 0.0 | 0.00 | 0.00 | 0.00 | 92 | 1014.1 |
| 20260508040624 | 43 | 217 | 0.0 | 0.0 | 0.00 | 0.00 | 0.00 | 92 | 1013.9 |
| 20260508040122 | 43 | 216 | 0.0 | 0.0 | 0.00 | 0.00 | 0.00 | 91 | 1014.1 |
| 20260508035618 | 43 | 216 | 0.0 | 0.0 | 0.00 | 0.01 | 0.01 | 91 | 1013.8 |
| 20260508035116 | 43 | 216 | 0.0 | 0.0 | 0.00 | 0.01 | 0.01 | 91 | 1014.1 |
| 20260508034612 | 43 | 216 | 0.0 | 0.0 | 0.00 | 0.01 | 0.01 | 90 | 1013.9 |
| 20260508034109 | 44 | 216 | 0.0 | 0.9 | 0.00 | 0.01 | 0.01 | 90 | 1013.6 |
| 20260508033607 | 44 | 250 | 0.0 | 0.0 | 0.00 | 0.01 | 0.01 | 89 | 1013.9 |
| 20260508033105 | 44 | 250 | 0.0 | 0.0 | 0.00 | 0.01 | 0.01 | 89 | 1013.9 |
| 20260508032601 | 44 | 250 | 0.0 | 0.0 | 0.00 | 0.01 | 0.01 | 88 | 1013.8 |
| 20260508032059 | 45 | 250 | 0.0 | 0.0 | 0.00 | 0.01 | 0.01 | 88 | 1013.6 |
| 20260508031556 | 45 | 250 | 0.0 | 0.0 | 0.00 | 0.01 | 0.01 | 87 | 1013.6 |
| 20260508031052 | 46 | 250 | 0.0 | 0.0 | 0.00 | 0.01 | 0.01 | 85 | 1013.7 |
| 20260508030548 | 47 | 254 | 0.0 | 0.0 | 0.00 | 0.01 | 0.01 | 84 | 1013.6 |
| 20260508030047 | 47 | 258 | 0.0 | 0.0 | 0.00 | 0.01 | 0.01 | 84 | 1013.5 |
| 20260508025542 | 47 | 259 | 0.0 | 0.9 | 0.00 | 0.01 | 0.01 | 84 | 1013.7 |
| 20260508025039 | 47 | 264 | 0.9 | 0.9 | 0.00 | 0.01 | 0.01 | 84 | 1013.3 |
| 20260508024535 | 47 | 260 | 0.0 | 0.9 | 0.00 | 0.01 | 0.01 | 84 | 1013.4 |
| 20260508024032 | 47 | 251 | 0.0 | 0.9 | 0.00 | 0.01 | 0.01 | 84 | 1013.4 |
| 20260508023529 | 47 | 262 | 0.9 | 0.9 | 0.00 | 0.01 | 0.01 | 84 | 1013.2 |
| 20260508023027 | 47 | 256 | 0.0 | 0.9 | 0.00 | 0.01 | 0.01 | 85 | 1013.6 |
| 20260508022522 | 47 | 251 | 0.0 | 0.9 | 0.00 | 0.01 | 0.01 | 85 | 1013.3 |
| 20260508022019 | 47 | 250 | 0.9 | 0.9 | 0.00 | 0.01 | 0.01 | 85 | 1013.2 |
| 20260508021515 | 47 | 250 | 0.0 | 0.9 | 0.00 | 0.01 | 0.01 | 85 | 1013.2 |
| 20260508021011 | 47 | 231 | 0.0 | 0.0 | 0.00 | 0.01 | 0.01 | 84 | 1013.2 |
| 20260508020509 | 48 | 230 | 0.0 | 0.0 | 0.00 | 0.01 | 0.01 | 83 | 1013.1 |
| 20260508020007 | 48 | 230 | 0.0 | 0.0 | 0.00 | 0.01 | 0.01 | 82 | 1013.0 |
| 20260508015504 | 49 | 244 | 0.0 | 0.0 | 0.00 | 0.01 | 0.01 | 80 | 1013.0 |
| 20260508015001 | 50 | 252 | 0.0 | 0.9 | 0.00 | 0.01 | 0.01 | 78 | 1012.9 |
| 20260508014457 | 50 | 253 | 0.0 | 0.9 | 0.00 | 0.01 | 0.01 | 78 | 1012.8 |
| 20260508013953 | 50 | 269 | 0.9 | 1.7 | 0.00 | 0.01 | 0.01 | 77 | 1012.7 |
| 20260508013449 | 50 | 250 | 0.0 | 0.9 | 0.00 | 0.01 | 0.01 | 77 | 1012.4 |
| 20260508012947 | 50 | 277 | 0.9 | 0.9 | 0.00 | 0.01 | 0.01 | 76 | 1012.4 |
| 20260508012444 | 50 | 254 | 0.9 | 2.6 | 0.00 | 0.01 | 0.01 | 75 | 1012.3 |
| 20260508011941 | 50 | 349 | 0.9 | 2.6 | 0.00 | 0.01 | 0.01 | 75 | 1012.3 |
| 20260508011439 | 50 | 288 | 1.7 | 1.7 | 0.00 | 0.01 | 0.01 | 74 | 1012.1 |
| 20260508010936 | 50 | 260 | 1.7 | 3.5 | 0.00 | 0.01 | 0.01 | 75 | 1012.1 |
| 20260508010433 | 49 | 265 | 0.0 | 1.7 | 0.00 | 0.01 | 0.01 | 77 | 1011.9 |
| 20260508005930 | 49 | 260 | 0.0 | 0.9 | 0.00 | 0.01 | 0.01 | 78 | 1011.9 |
| 20260508005427 | 49 | 255 | 0.0 | 0.9 | 0.00 | 0.01 | 0.01 | 79 | 1012.0 |
| 20260508004923 | 49 | 254 | 0.0 | 0.0 | 0.00 | 0.01 | 0.01 | 81 | 1012.1 |
| 20260508004420 | 49 | 254 | 0.0 | 0.9 | 0.00 | 0.01 | 0.01 | 82 | 1012.0 |
| 20260508003916 | 49 | 252 | 0.0 | 0.9 | 0.00 | 0.01 | 0.01 | 81 | 1011.8 |
| 20260508003413 | 49 | 252 | 0.0 | 0.9 | 0.00 | 0.01 | 0.01 | 80 | 1011.9 |
| 20260508002911 | 50 | 252 | 0.0 | 0.0 | 0.00 | 0.01 | 0.01 | 78 | 1011.7 |
| 20260508002407 | 50 | 253 | 0.0 | 0.9 | 0.00 | 0.01 | 0.01 | 77 | 1011.8 |
| 20260508001903 | 51 | 253 | 0.0 | 0.9 | 0.00 | 0.01 | 0.01 | 75 | 1012.0 |
| 20260508001359 | 51 | 254 | 0.0 | 0.9 | 0.00 | 0.01 | 0.01 | 73 | 1011.9 |
| 20260508000855 | 51 | 268 | 0.0 | 0.9 | 0.00 | 0.01 | 0.01 | 73 | 1011.9 |
| 20260508000351 | 51 | 262 | 0.0 | 0.9 | 0.00 | 0.01 | 0.01 | 73 | 1011.9 |
| 20260507235848 | 52 | 271 | 0.9 | 1.7 | 0.00 | 0.01 | 0.01 | 73 | 1011.9 |
| 20260507235346 | 52 | 253 | 0.0 | 0.9 | 0.00 | 0.01 | 0.01 | 73 | 1012.0 |
| 20260507234843 | 52 | 259 | 0.9 | 0.9 | 0.00 | 0.01 | 0.01 | 72 | 1011.8 |
| 20260507234339 | 52 | 264 | 0.9 | 1.7 | 0.00 | 0.01 | 0.01 | 70 | 1012.0 |
| 20260507233836 | 53 | 261 | 1.7 | 1.7 | 0.00 | 0.01 | 0.01 | 69 | 1011.8 |
| 20260507233333 | 53 | 261 | 1.7 | 2.6 | 0.00 | 0.01 | 0.01 | 68 | 1011.9 |
| 20260507232831 | 53 | 256 | 3.5 | 6.1 | 0.00 | 0.01 | 0.01 | 67 | 1011.8 |
| 20260507232327 | 53 | 199 | 1.7 | 3.5 | 0.00 | 0.01 | 0.01 | 68 | 1011.8 |
| 20260507231825 | 53 | 263 | 1.7 | 3.5 | 0.00 | 0.01 | 0.01 | 68 | 1011.6 |
| 20260507231321 | 53 | 281 | 1.7 | 3.5 | 0.00 | 0.01 | 0.01 | 68 | 1011.8 |
| 20260507230817 | 54 | 255 | 2.6 | 2.6 | 0.00 | 0.01 | 0.01 | 67 | 1011.6 |
| 20260507230315 | 55 | 258 | 0.9 | 1.7 | 0.00 | 0.01 | 0.01 | 66 | 1011.7 |
| 20260507225810 | 55 | 235 | 1.7 | 2.6 | 0.00 | 0.01 | 0.01 | 66 | 1011.7 |
| 20260507225306 | 53 | 240 | 1.7 | 3.5 | 0.00 | 0.01 | 0.01 | 67 | 1011.6 |
| 20260507224802 | 53 | 232 | 0.9 | 2.6 | 0.00 | 0.01 | 0.01 | 68 | 1011.5 |
| 20260507224259 | 54 | 222 | 0.9 | 2.6 | 0.00 | 0.01 | 0.01 | 67 | 1011.6 |
| 20260507223755 | 54 | 253 | 1.7 | 5.2 | 0.00 | 0.01 | 0.01 | 66 | 1011.7 |
| 20260507223252 | 54 | 257 | 2.6 | 7.0 | 0.00 | 0.01 | 0.01 | 66 | 1011.4 |
| 20260507222749 | 55 | 250 | 3.5 | 5.2 | 0.00 | 0.01 | 0.01 | 65 | 1011.4 |
| 20260507222245 | 55 | 13 | 3.5 | 5.2 | 0.00 | 0.01 | 0.01 | 65 | 1011.4 |
| 20260507221742 | 55 | 275 | 2.6 | 3.5 | 0.00 | 0.01 | 0.01 | 65 | 1011.3 |
| 20260507221238 | 55 | 209 | 0.9 | 1.7 | 0.00 | 0.01 | 0.01 | 66 | 1011.5 |
| 20260507220735 | 54 | 336 | 3.5 | 5.2 | 0.00 | 0.01 | 0.01 | 65 | 1011.1 |
| 20260507220233 | 54 | 286 | 3.5 | 7.0 | 0.00 | 0.01 | 0.01 | 65 | 1011.3 |
| 20260507215729 | 55 | 213 | 0.9 | 2.6 | 0.00 | 0.01 | 0.01 | 64 | 1011.5 |
| 20260507215227 | 55 | 231 | 2.6 | 7.0 | 0.00 | 0.01 | 0.01 | 64 | 1011.2 |
| 20260507214724 | 56 | 264 | 2.6 | 6.1 | 0.00 | 0.01 | 0.01 | 63 | 1011.2 |
| 20260507214221 | 58 | 260 | 0.9 | 1.7 | 0.00 | 0.01 | 0.01 | 59 | 1011.1 |
| 20260507213716 | 58 | 157 | 1.7 | 3.5 | 0.00 | 0.01 | 0.01 | 61 | 1011.1 |
| 20260507213214 | 57 | 296 | 3.5 | 3.5 | 0.00 | 0.01 | 0.01 | 63 | 1011.0 |
| 20260507212709 | 57 | 242 | 1.7 | 3.5 | 0.00 | 0.01 | 0.01 | 63 | 1011.1 |
| 20260507212206 | 57 | 244 | 1.7 | 6.1 | 0.00 | 0.01 | 0.01 | 64 | 1010.7 |
| 20260507211703 | 56 | 326 | 0.9 | 5.2 | 0.00 | 0.01 | 0.01 | 65 | 1011.0 |
| 20260507211158 | 56 | 227 | 0.9 | 7.0 | 0.00 | 0.01 | 0.01 | 66 | 1010.6 |
| 20260507210656 | 55 | 231 | 0.0 | 2.6 | 0.00 | 0.01 | 0.01 | 69 | 1010.6 |
| 20260507210153 | 54 | 232 | 2.6 | 5.2 | 0.00 | 0.01 | 0.01 | 70 | 1010.6 |
| 20260507205649 | 54 | 254 | 0.0 | 2.6 | 0.00 | 0.01 | 0.01 | 71 | 1010.5 |
| 20260507205146 | 54 | 226 | 0.9 | 2.6 | 0.00 | 0.01 | 0.01 | 72 | 1010.7 |
| 20260507204642 | 54 | 235 | 0.9 | 2.6 | 0.00 | 0.01 | 0.01 | 72 | 1010.6 |
| 20260507204140 | 54 | 268 | 3.5 | 3.5 | 0.00 | 0.01 | 0.01 | 72 | 1010.6 |
| 20260507203638 | 54 | 280 | 1.7 | 1.7 | 0.00 | 0.01 | 0.01 | 74 | 1010.6 |
| 20260507203135 | 54 | 244 | 2.6 | 3.5 | 0.00 | 0.01 | 0.01 | 74 | 1010.4 |
| 20260507202631 | 54 | 234 | 1.7 | 2.6 | 0.00 | 0.01 | 0.01 | 74 | 1010.6 |
| 20260507202127 | 55 | 223 | 2.6 | 3.5 | 0.00 | 0.01 | 0.01 | 74 | 1010.4 |
| 20260507201622 | 55 | 273 | 1.7 | 6.1 | 0.00 | 0.01 | 0.01 | 74 | 1010.5 |
| 20260507201120 | 55 | 277 | 6.1 | 7.8 | 0.00 | 0.01 | 0.01 | 74 | 1010.3 |
| 20260507200615 | 55 | 275 | 1.7 | 3.5 | 0.00 | 0.01 | 0.01 | 77 | 1010.3 |
| 20260507200111 | 55 | 213 | 1.7 | 3.5 | 0.00 | 0.01 | 0.01 | 76 | 1010.3 |
| 20260507195609 | 55 | 275 | 0.9 | 2.6 | 0.00 | 0.01 | 0.01 | 77 | 1010.3 |
| 20260507195106 | 55 | 210 | 1.7 | 3.5 | 0.00 | 0.01 | 0.01 | 75 | 1010.3 |
| 20260507194602 | 55 | 267 | 1.7 | 3.5 | 0.00 | 0.01 | 0.01 | 76 | 1010.3 |
| 20260507194058 | 55 | 258 | 1.7 | 5.2 | 0.00 | 0.01 | 0.01 | 76 | 1010.4 |
| 20260507193555 | 55 | 242 | 1.7 | 5.2 | 0.00 | 0.01 | 0.01 | 75 | 1010.4 |
| 20260507193052 | 55 | 261 | 3.5 | 6.1 | 0.00 | 0.01 | 0.01 | 75 | 1010.5 |
| 20260507192548 | 55 | 267 | 2.6 | 7.0 | 0.00 | 0.01 | 0.01 | 75 | 1010.8 |
| 20260507192045 | 56 | 284 | 5.2 | 11.3 | 0.00 | 0.01 | 0.01 | 73 | 1010.8 |
| 20260507191540 | 56 | 235 | 4.3 | 7.0 | 0.00 | 0.01 | 0.01 | 74 | 1010.7 |
| 20260507191038 | 55 | 247 | 0.9 | 3.5 | 0.00 | 0.01 | 0.01 | 75 | 1010.7 |
| 20260507190535 | 54 | 349 | 4.3 | 5.2 | 0.00 | 0.01 | 0.01 | 76 | 1011.0 |
| 20260507190034 | 55 | 358 | 2.6 | 8.7 | 0.00 | 0.01 | 0.01 | 75 | 1010.8 |
| 20260507185532 | 55 | 233 | 1.7 | 7.0 | 0.00 | 0.01 | 0.01 | 75 | 1010.8 |
| 20260507185028 | 55 | 255 | 0.9 | 6.1 | 0.00 | 0.01 | 0.01 | 76 | 1011.0 |
| 20260507184526 | 55 | 240 | 1.7 | 2.6 | 0.00 | 0.01 | 0.01 | 77 | 1010.7 |
| 20260507184024 | 54 | 260 | 1.7 | 3.5 | 0.00 | 0.01 | 0.01 | 77 | 1011.1 |
| 20260507183519 | 55 | 227 | 1.7 | 3.5 | 0.00 | 0.01 | 0.01 | 78 | 1011.0 |
| 20260507183017 | 55 | 5 | 0.9 | 2.6 | 0.00 | 0.01 | 0.01 | 78 | 1011.1 |
| 20260507182513 | 54 | 279 | 0.9 | 2.6 | 0.00 | 0.01 | 0.01 | 79 | 1010.8 |
| 20260507182009 | 55 | 262 | 1.7 | 2.6 | 0.00 | 0.01 | 0.01 | 79 | 1011.0 |
| 20260507181506 | 55 | 189 | 0.9 | 1.7 | 0.00 | 0.01 | 0.01 | 78 | 1011.0 |
| 20260507181002 | 56 | 331 | 5.2 | 7.0 | 0.00 | 0.01 | 0.01 | 77 | 1011.1 |
| 20260507180459 | 55 | 248 | 0.9 | 2.6 | 0.00 | 0.01 | 0.01 | 78 | 1010.7 |
| 20260507175955 | 55 | 246 | 2.6 | 5.2 | 0.00 | 0.01 | 0.01 | 78 | 1011.0 |
| 20260507175452 | 55 | 53 | 1.7 | 2.6 | 0.00 | 0.01 | 0.01 | 79 | 1010.5 |
| 20260507174949 | 55 | 303 | 0.9 | 2.6 | 0.00 | 0.01 | 0.01 | 78 | 1010.5 |
| 20260507174446 | 55 | 264 | 0.9 | 3.5 | 0.00 | 0.01 | 0.01 | 79 | 1010.6 |
| 20260507173944 | 56 | 304 | 1.7 | 2.6 | 0.00 | 0.01 | 0.01 | 77 | 1010.5 |
| 20260507173441 | 56 | 246 | 0.0 | 0.9 | 0.00 | 0.01 | 0.01 | 79 | 1010.8 |
| 20260507172938 | 55 | 261 | 0.9 | 1.7 | 0.00 | 0.01 | 0.01 | 80 | 1010.5 |
| 20260507172434 | 54 | 22 | 0.0 | 2.6 | 0.00 | 0.01 | 0.01 | 81 | 1010.6 |
| 20260507171931 | 55 | 286 | 1.7 | 2.6 | 0.00 | 0.01 | 0.01 | 79 | 1010.8 |
| 20260507171427 | 55 | 335 | 0.9 | 0.9 | 0.00 | 0.01 | 0.01 | 79 | 1010.8 |
| 20260507170924 | 55 | 216 | 0.0 | 5.2 | 0.00 | 0.01 | 0.01 | 79 | 1010.8 |
| 20260507170420 | 54 | 135 | 0.9 | 3.5 | 0.00 | 0.01 | 0.01 | 80 | 1010.8 |
| 20260507165917 | 54 | 18 | 0.9 | 2.6 | 0.00 | 0.01 | 0.01 | 82 | 1011.0 |
| 20260507165413 | 53 | 219 | 0.0 | 2.6 | 0.00 | 0.01 | 0.01 | 82 | 1010.8 |
| 20260507164908 | 54 | 248 | 1.7 | 6.1 | 0.00 | 0.01 | 0.01 | 81 | 1011.0 |
| 20260507164406 | 54 | 297 | 3.5 | 6.1 | 0.00 | 0.01 | 0.01 | 82 | 1011.0 |
| 20260507163903 | 54 | 269 | 1.7 | 7.0 | 0.00 | 0.01 | 0.01 | 82 | 1011.0 |
| 20260507163401 | 53 | 213 | 0.9 | 2.6 | 0.00 | 0.01 | 0.01 | 83 | 1011.1 |
| 20260507162857 | 53 | 263 | 2.6 | 7.8 | 0.00 | 0.01 | 0.01 | 83 | 1011.2 |
| 20260507162352 | 53 | 251 | 0.0 | 1.7 | 0.00 | 0.01 | 0.01 | 85 | 1011.1 |
| 20260507161850 | 52 | 280 | 3.5 | 6.1 | 0.00 | 0.01 | 0.01 | 84 | 1011.2 |
| 20260507161346 | 52 | 353 | 1.7 | 6.1 | 0.00 | 0.01 | 0.01 | 85 | 1011.3 |
| 20260507160843 | 51 | 257 | 2.6 | 3.5 | 0.00 | 0.01 | 0.01 | 85 | 1011.0 |
| 20260507160338 | 51 | 287 | 2.6 | 3.5 | 0.00 | 0.01 | 0.01 | 85 | 1011.1 |
| 20260507155835 | 51 | 12 | 0.9 | 0.9 | 0.00 | 0.01 | 0.01 | 86 | 1011.1 |
| 20260507155331 | 51 | 199 | 0.0 | 1.7 | 0.00 | 0.01 | 0.01 | 86 | 1011.1 |
| 20260507154828 | 50 | 101 | 0.9 | 0.9 | 0.00 | 0.01 | 0.01 | 87 | 1011.1 |
| 20260507154325 | 50 | 267 | 3.5 | 7.0 | 0.00 | 0.01 | 0.01 | 87 | 1011.1 |
| 20260507153822 | 50 | 308 | 0.9 | 3.5 | 0.00 | 0.01 | 0.01 | 87 | 1011.1 |
| 20260507153318 | 50 | 156 | 0.9 | 3.5 | 0.00 | 0.01 | 0.01 | 87 | 1011.2 |
| 20260507152815 | 50 | 225 | 0.0 | 3.5 | 0.00 | 0.01 | 0.01 | 87 | 1011.1 |
| 20260507152311 | 50 | 333 | 2.6 | 2.6 | 0.00 | 0.01 | 0.01 | 87 | 1011.3 |
| 20260507151807 | 51 | 339 | 3.5 | 5.2 | 0.00 | 0.01 | 0.01 | 86 | 1011.4 |
| 20260507151303 | 51 | 260 | 1.7 | 5.2 | 0.00 | 0.01 | 0.01 | 86 | 1011.2 |
| 20260507150801 | 51 | 233 | 0.9 | 1.7 | 0.00 | 0.01 | 0.01 | 86 | 1011.3 |
| 20260507150257 | 51 | 224 | 0.0 | 3.5 | 0.00 | 0.01 | 0.01 | 86 | 1011.3 |
| 20260507145754 | 51 | 45 | 1.7 | 2.6 | 0.00 | 0.01 | 0.01 | 87 | 1011.1 |
| 20260507145250 | 52 | 263 | 1.7 | 3.5 | 0.00 | 0.01 | 0.01 | 87 | 1011.5 |
| 20260507144747 | 52 | 196 | 0.0 | 1.7 | 0.00 | 0.01 | 0.01 | 87 | 1011.1 |
| 20260507144244 | 53 | 169 | 0.0 | 1.7 | 0.00 | 0.01 | 0.01 | 87 | 1011.0 |
| 20260507143741 | 53 | 229 | 0.0 | 0.9 | 0.00 | 0.01 | 0.01 | 87 | 1011.0 |
| 20260507143238 | 53 | 240 | 0.9 | 0.9 | 0.00 | 0.01 | 0.01 | 88 | 1010.8 |
| 20260507142734 | 53 | 22 | 0.9 | 5.2 | 0.00 | 0.01 | 0.01 | 88 | 1011.0 |
| 20260507142231 | 54 | 262 | 2.6 | 7.0 | 0.00 | 0.01 | 0.01 | 88 | 1010.7 |